sensor_id;sensor_type;location;lat;lon;timestamp;temperature;humidity
3023;DHT22;1521;53.584;9.938;2023-07-09T00:01:57;19.40;1.00
3023;DHT22;1521;53.584;9.938;2023-07-09T00:04:23;19.40;1.00
3023;DHT22;1521;53.584;9.938;2023-07-09T00:06:48;19.40;1.00
3023;DHT22;1521;53.584;9.938;2023-07-09T00:09:16;19.30;1.00
3023;DHT22;1521;53.584;9.938;2023-07-09T00:11:43;19.20;1.00
3023;DHT22;1521;53.584;9.938;2023-07-09T00:14:14;19.20;1.00
3023;DHT22;1521;53.584;9.938;2023-07-09T00:16:41;19.20;1.00
3023;DHT22;1521;53.584;9.938;2023-07-09T00:19:16;19.20;1.00
3023;DHT22;1521;53.584;9.938;2023-07-09T00:21:43;19.20;1.00
3023;DHT22;1521;53.584;9.938;2023-07-09T00:24:11;19.20;1.00
3023;DHT22;1521;53.584;9.938;2023-07-09T00:26:38;19.20;1.00
3023;DHT22;1521;53.584;9.938;2023-07-09T00:29:08;19.20;1.00
3023;DHT22;1521;53.584;9.938;2023-07-09T00:31:35;19.20;1.00
3023;DHT22;1521;53.584;9.938;2023-07-09T00:34:04;19.20;1.00
3023;DHT22;1521;53.584;9.938;2023-07-09T00:36:31;19.20;1.00
3023;DHT22;1521;53.584;9.938;2023-07-09T00:38:57;19.10;1.00
3023;DHT22;1521;53.584;9.938;2023-07-09T00:41:35;19.10;1.00
3023;DHT22;1521;53.584;9.938;2023-07-09T00:49:24;19.00;1.00
3023;DHT22;1521;53.584;9.938;2023-07-09T00:51:51;19.00;1.00
3023;DHT22;1521;53.584;9.938;2023-07-09T00:54:21;18.90;1.00
3023;DHT22;1521;53.584;9.938;2023-07-09T00:56:49;18.90;1.00
3023;DHT22;1521;53.584;9.938;2023-07-09T00:59:20;18.90;1.00
3023;DHT22;1521;53.584;9.938;2023-07-09T01:01:47;18.80;1.00
3023;DHT22;1521;53.584;9.938;2023-07-09T01:04:17;18.80;1.00
3023;DHT22;1521;53.584;9.938;2023-07-09T01:06:48;18.70;1.00
3023;DHT22;1521;53.584;9.938;2023-07-09T01:09:16;18.60;1.00
3023;DHT22;1521;53.584;9.938;2023-07-09T01:11:42;18.60;1.00
3023;DHT22;1521;53.584;9.938;2023-07-09T01:14:11;18.70;1.00
3023;DHT22;1521;53.584;9.938;2023-07-09T01:16:41;18.70;1.00
3023;DHT22;1521;53.584;9.938;2023-07-09T01:19:07;18.70;1.00
3023;DHT22;1521;53.584;9.938;2023-07-09T01:21:33;18.70;1.00
3023;DHT22;1521;53.584;9.938;2023-07-09T01:24:12;18.60;1.00
3023;DHT22;1521;53.584;9.938;2023-07-09T01:26:39;18.60;1.00
3023;DHT22;1521;53.584;9.938;2023-07-09T01:29:05;18.50;1.00
3023;DHT22;1521;53.584;9.938;2023-07-09T01:31:31;18.60;1.00
3023;DHT22;1521;53.584;9.938;2023-07-09T01:33:57;18.60;1.00
3023;DHT22;1521;53.584;9.938;2023-07-09T01:36:24;18.60;1.00
3023;DHT22;1521;53.584;9.938;2023-07-09T01:38:51;18.60;1.00
3023;DHT22;1521;53.584;9.938;2023-07-09T01:41:17;18.60;1.00
3023;DHT22;1521;53.584;9.938;2023-07-09T01:43:45;18.50;1.00
3023;DHT22;1521;53.584;9.938;2023-07-09T01:46:12;18.50;1.00
3023;DHT22;1521;53.584;9.938;2023-07-09T01:48:38;18.50;1.00
3023;DHT22;1521;53.584;9.938;2023-07-09T01:51:12;18.50;1.00
3023;DHT22;1521;53.584;9.938;2023-07-09T01:53:40;18.50;1.00
3023;DHT22;1521;53.584;9.938;2023-07-09T01:56:06;18.40;1.00
3023;DHT22;1521;53.584;9.938;2023-07-09T01:58:36;18.30;1.00
3023;DHT22;1521;53.584;9.938;2023-07-09T02:01:01;18.20;1.00
3023;DHT22;1521;53.584;9.938;2023-07-09T02:03:27;18.30;1.00
3023;DHT22;1521;53.584;9.938;2023-07-09T02:05:54;18.30;1.00
3023;DHT22;1521;53.584;9.938;2023-07-09T02:08:20;18.30;1.00
3023;DHT22;1521;53.584;9.938;2023-07-09T02:10:48;18.20;1.00
3023;DHT22;1521;53.584;9.938;2023-07-09T02:13:14;18.20;1.00
3023;DHT22;1521;53.584;9.938;2023-07-09T02:15:40;18.20;1.00
3023;DHT22;1521;53.584;9.938;2023-07-09T02:18:09;18.10;1.00
3023;DHT22;1521;53.584;9.938;2023-07-09T02:20:35;18.10;1.00
3023;DHT22;1521;53.584;9.938;2023-07-09T02:23:01;18.10;1.00
3023;DHT22;1521;53.584;9.938;2023-07-09T02:25:27;18.10;1.00
3023;DHT22;1521;53.584;9.938;2023-07-09T02:27:52;18.00;1.00
3023;DHT22;1521;53.584;9.938;2023-07-09T02:30:18;18.10;1.00
3023;DHT22;1521;53.584;9.938;2023-07-09T02:32:44;18.00;1.00
3023;DHT22;1521;53.584;9.938;2023-07-09T02:35:09;18.00;1.00
3023;DHT22;1521;53.584;9.938;2023-07-09T02:37:35;17.90;1.00
3023;DHT22;1521;53.584;9.938;2023-07-09T02:40:03;17.90;1.00
3023;DHT22;1521;53.584;9.938;2023-07-09T02:48:16;17.90;1.00
3023;DHT22;1521;53.584;9.938;2023-07-09T02:50:42;17.90;1.00
3023;DHT22;1521;53.584;9.938;2023-07-09T02:53:07;17.90;1.00
3023;DHT22;1521;53.584;9.938;2023-07-09T02:55:33;17.90;1.00
3023;DHT22;1521;53.584;9.938;2023-07-09T02:57:59;17.80;1.00
3023;DHT22;1521;53.584;9.938;2023-07-09T03:00:25;17.80;1.00
3023;DHT22;1521;53.584;9.938;2023-07-09T03:02:51;17.70;1.00
3023;DHT22;1521;53.584;9.938;2023-07-09T03:05:16;17.70;1.00
3023;DHT22;1521;53.584;9.938;2023-07-09T03:07:42;17.60;1.00
3023;DHT22;1521;53.584;9.938;2023-07-09T03:10:07;17.60;1.00
3023;DHT22;1521;53.584;9.938;2023-07-09T03:12:33;17.60;1.00
3023;DHT22;1521;53.584;9.938;2023-07-09T03:14:59;17.60;1.00
3023;DHT22;1521;53.584;9.938;2023-07-09T03:17:24;17.70;1.00
3023;DHT22;1521;53.584;9.938;2023-07-09T03:19:50;17.70;1.00
3023;DHT22;1521;53.584;9.938;2023-07-09T03:22:15;17.70;1.00
3023;DHT22;1521;53.584;9.938;2023-07-09T03:24:42;17.70;1.00
3023;DHT22;1521;53.584;9.938;2023-07-09T03:27:08;17.70;1.00
3023;DHT22;1521;53.584;9.938;2023-07-09T03:29:34;17.70;1.00
3023;DHT22;1521;53.584;9.938;2023-07-09T03:32:00;17.70;1.00
3023;DHT22;1521;53.584;9.938;2023-07-09T03:34:25;17.70;1.00
3023;DHT22;1521;53.584;9.938;2023-07-09T03:36:51;17.70;1.00
3023;DHT22;1521;53.584;9.938;2023-07-09T03:39:17;17.70;1.00
3023;DHT22;1521;53.584;9.938;2023-07-09T03:41:42;17.70;1.00
3023;DHT22;1521;53.584;9.938;2023-07-09T03:44:08;17.80;1.00
3023;DHT22;1521;53.584;9.938;2023-07-09T03:46:33;17.70;1.00
3023;DHT22;1521;53.584;9.938;2023-07-09T03:48:59;17.70;1.00
3023;DHT22;1521;53.584;9.938;2023-07-09T03:51:25;17.60;1.00
3023;DHT22;1521;53.584;9.938;2023-07-09T03:53:51;17.60;1.00
3023;DHT22;1521;53.584;9.938;2023-07-09T03:56:16;17.60;1.00
3023;DHT22;1521;53.584;9.938;2023-07-09T03:58:42;17.60;1.00
3023;DHT22;1521;53.584;9.938;2023-07-09T04:01:07;17.70;1.00
3023;DHT22;1521;53.584;9.938;2023-07-09T04:03:33;17.70;1.00
3023;DHT22;1521;53.584;9.938;2023-07-09T04:05:59;17.70;1.00
3023;DHT22;1521;53.584;9.938;2023-07-09T04:08:24;17.70;1.00
3023;DHT22;1521;53.584;9.938;2023-07-09T04:10:53;17.70;1.00
3023;DHT22;1521;53.584;9.938;2023-07-09T04:13:20;17.70;1.00
3023;DHT22;1521;53.584;9.938;2023-07-09T04:15:46;17.70;1.00
3023;DHT22;1521;53.584;9.938;2023-07-09T04:18:12;17.80;1.00
3023;DHT22;1521;53.584;9.938;2023-07-09T04:20:37;17.80;1.00
3023;DHT22;1521;53.584;9.938;2023-07-09T04:23:03;17.80;1.00
3023;DHT22;1521;53.584;9.938;2023-07-09T04:25:29;17.70;1.00
3023;DHT22;1521;53.584;9.938;2023-07-09T04:27:55;17.70;1.00
3023;DHT22;1521;53.584;9.938;2023-07-09T04:30:21;17.70;1.00
3023;DHT22;1521;53.584;9.938;2023-07-09T04:32:46;17.80;1.00
3023;DHT22;1521;53.584;9.938;2023-07-09T04:35:14;17.70;1.00
3023;DHT22;1521;53.584;9.938;2023-07-09T04:37:41;17.70;1.00
3023;DHT22;1521;53.584;9.938;2023-07-09T04:40:08;17.70;1.00
3023;DHT22;1521;53.584;9.938;2023-07-09T04:42:36;17.70;1.00
3023;DHT22;1521;53.584;9.938;2023-07-09T04:45:03;17.80;1.00
3023;DHT22;1521;53.584;9.938;2023-07-09T04:47:28;18.00;1.00
3023;DHT22;1521;53.584;9.938;2023-07-09T04:49:54;18.10;1.00
3023;DHT22;1521;53.584;9.938;2023-07-09T04:52:20;18.30;1.00
3023;DHT22;1521;53.584;9.938;2023-07-09T04:54:47;18.50;1.00
3023;DHT22;1521;53.584;9.938;2023-07-09T04:57:12;18.60;1.00
3023;DHT22;1521;53.584;9.938;2023-07-09T04:59:38;18.80;1.00
3023;DHT22;1521;53.584;9.938;2023-07-09T05:02:04;18.80;1.00
3023;DHT22;1521;53.584;9.938;2023-07-09T05:04:30;19.00;1.00
3023;DHT22;1521;53.584;9.938;2023-07-09T05:06:57;19.10;1.00
3023;DHT22;1521;53.584;9.938;2023-07-09T05:09:23;19.20;1.00
3023;DHT22;1521;53.584;9.938;2023-07-09T05:11:49;19.40;1.00
3023;DHT22;1521;53.584;9.938;2023-07-09T05:14:16;19.50;1.00
3023;DHT22;1521;53.584;9.938;2023-07-09T05:16:42;19.70;99.90
3023;DHT22;1521;53.584;9.938;2023-07-09T05:19:08;19.80;99.90
3023;DHT22;1521;53.584;9.938;2023-07-09T05:21:34;19.90;99.90
3023;DHT22;1521;53.584;9.938;2023-07-09T05:24:00;20.00;99.90
3023;DHT22;1521;53.584;9.938;2023-07-09T05:26:25;20.10;99.90
3023;DHT22;1521;53.584;9.938;2023-07-09T05:28:51;20.30;99.90
3023;DHT22;1521;53.584;9.938;2023-07-09T05:31:17;20.40;99.90
3023;DHT22;1521;53.584;9.938;2023-07-09T05:33:42;20.50;99.90
3023;DHT22;1521;53.584;9.938;2023-07-09T05:36:09;20.60;99.90
3023;DHT22;1521;53.584;9.938;2023-07-09T05:38:43;20.80;99.90
3023;DHT22;1521;53.584;9.938;2023-07-09T05:41:11;20.80;99.90
3023;DHT22;1521;53.584;9.938;2023-07-09T05:43:36;21.00;99.90
3023;DHT22;1521;53.584;9.938;2023-07-09T05:46:04;21.10;99.90
3023;DHT22;1521;53.584;9.938;2023-07-09T05:48:30;21.30;99.90
3023;DHT22;1521;53.584;9.938;2023-07-09T05:50:55;21.40;99.90
3023;DHT22;1521;53.584;9.938;2023-07-09T05:53:22;21.50;99.90
3023;DHT22;1521;53.584;9.938;2023-07-09T05:55:47;21.70;99.90
3023;DHT22;1521;53.584;9.938;2023-07-09T05:58:13;21.90;99.90
3023;DHT22;1521;53.584;9.938;2023-07-09T06:00:38;22.00;99.90
3023;DHT22;1521;53.584;9.938;2023-07-09T06:03:06;22.20;99.90
3023;DHT22;1521;53.584;9.938;2023-07-09T06:05:33;22.30;99.90
3023;DHT22;1521;53.584;9.938;2023-07-09T06:07:59;22.50;99.90
3023;DHT22;1521;53.584;9.938;2023-07-09T06:10:25;22.60;99.90
3023;DHT22;1521;53.584;9.938;2023-07-09T06:12:51;22.80;99.90
3023;DHT22;1521;53.584;9.938;2023-07-09T06:15:16;23.00;99.90
3023;DHT22;1521;53.584;9.938;2023-07-09T06:17:42;23.20;99.90
3023;DHT22;1521;53.584;9.938;2023-07-09T06:20:08;23.30;99.90
3023;DHT22;1521;53.584;9.938;2023-07-09T06:22:34;23.50;99.90
3023;DHT22;1521;53.584;9.938;2023-07-09T06:25:00;23.60;99.90
3023;DHT22;1521;53.584;9.938;2023-07-09T06:27:26;23.70;99.90
3023;DHT22;1521;53.584;9.938;2023-07-09T06:29:51;23.60;99.90
3023;DHT22;1521;53.584;9.938;2023-07-09T06:32:17;23.60;99.90
3023;DHT22;1521;53.584;9.938;2023-07-09T06:34:43;23.70;99.90
3023;DHT22;1521;53.584;9.938;2023-07-09T06:37:08;23.80;99.90
3023;DHT22;1521;53.584;9.938;2023-07-09T06:39:34;24.00;99.90
3023;DHT22;1521;53.584;9.938;2023-07-09T06:41:59;24.20;99.90
3023;DHT22;1521;53.584;9.938;2023-07-09T06:44:27;24.30;99.90
3023;DHT22;1521;53.584;9.938;2023-07-09T06:46:53;24.60;99.90
3023;DHT22;1521;53.584;9.938;2023-07-09T06:49:18;24.70;99.90
3023;DHT22;1521;53.584;9.938;2023-07-09T06:51:44;24.90;99.90
3023;DHT22;1521;53.584;9.938;2023-07-09T06:54:12;25.00;99.90
3023;DHT22;1521;53.584;9.938;2023-07-09T06:56:38;25.10;99.90
3023;DHT22;1521;53.584;9.938;2023-07-09T06:59:03;25.30;99.90
3023;DHT22;1521;53.584;9.938;2023-07-09T07:01:30;25.50;99.90
3023;DHT22;1521;53.584;9.938;2023-07-09T07:03:55;25.70;99.90
3023;DHT22;1521;53.584;9.938;2023-07-09T07:06:21;25.80;99.90
3023;DHT22;1521;53.584;9.938;2023-07-09T07:08:46;25.90;99.90
3023;DHT22;1521;53.584;9.938;2023-07-09T07:11:12;26.10;99.90
3023;DHT22;1521;53.584;9.938;2023-07-09T07:13:39;26.30;99.90
3023;DHT22;1521;53.584;9.938;2023-07-09T07:16:09;26.40;99.90
3023;DHT22;1521;53.584;9.938;2023-07-09T07:18:36;26.50;99.90
3023;DHT22;1521;53.584;9.938;2023-07-09T07:21:02;26.70;99.90
3023;DHT22;1521;53.584;9.938;2023-07-09T07:23:28;27.10;99.90
3023;DHT22;1521;53.584;9.938;2023-07-09T07:25:54;27.30;99.90
3023;DHT22;1521;53.584;9.938;2023-07-09T07:28:20;27.40;99.90
3023;DHT22;1521;53.584;9.938;2023-07-09T07:30:46;27.40;99.90
3023;DHT22;1521;53.584;9.938;2023-07-09T07:33:13;27.40;99.90
3023;DHT22;1521;53.584;9.938;2023-07-09T07:35:39;27.40;99.90
3023;DHT22;1521;53.584;9.938;2023-07-09T07:38:05;27.40;99.90
3023;DHT22;1521;53.584;9.938;2023-07-09T07:40:30;27.50;99.90
3023;DHT22;1521;53.584;9.938;2023-07-09T07:42:56;27.70;99.90
3023;DHT22;1521;53.584;9.938;2023-07-09T07:45:21;28.10;99.90
3023;DHT22;1521;53.584;9.938;2023-07-09T07:47:47;28.30;99.90
3023;DHT22;1521;53.584;9.938;2023-07-09T07:50:13;28.50;99.90
3023;DHT22;1521;53.584;9.938;2023-07-09T07:52:39;28.60;99.90
3023;DHT22;1521;53.584;9.938;2023-07-09T07:55:05;28.70;99.90
3023;DHT22;1521;53.584;9.938;2023-07-09T07:57:32;28.80;99.90
3023;DHT22;1521;53.584;9.938;2023-07-09T07:59:57;28.90;99.90
3023;DHT22;1521;53.584;9.938;2023-07-09T08:02:23;29.10;99.90
3023;DHT22;1521;53.584;9.938;2023-07-09T08:04:49;29.20;99.90
3023;DHT22;1521;53.584;9.938;2023-07-09T08:07:17;29.30;99.90
3023;DHT22;1521;53.584;9.938;2023-07-09T08:09:44;29.30;99.90
3023;DHT22;1521;53.584;9.938;2023-07-09T08:12:10;29.40;99.90
3023;DHT22;1521;53.584;9.938;2023-07-09T08:14:39;29.70;99.90
3023;DHT22;1521;53.584;9.938;2023-07-09T08:17:05;30.00;99.90
3023;DHT22;1521;53.584;9.938;2023-07-09T08:19:32;30.00;99.90
3023;DHT22;1521;53.584;9.938;2023-07-09T08:21:58;30.10;99.90
3023;DHT22;1521;53.584;9.938;2023-07-09T08:24:23;30.20;99.90
3023;DHT22;1521;53.584;9.938;2023-07-09T08:26:49;30.40;99.90
3023;DHT22;1521;53.584;9.938;2023-07-09T08:29:15;30.70;99.90
3023;DHT22;1521;53.584;9.938;2023-07-09T08:31:40;30.80;99.90
3023;DHT22;1521;53.584;9.938;2023-07-09T08:34:07;31.00;99.90
3023;DHT22;1521;53.584;9.938;2023-07-09T08:36:33;31.40;99.90
3023;DHT22;1521;53.584;9.938;2023-07-09T08:39:01;31.60;99.90
3023;DHT22;1521;53.584;9.938;2023-07-09T08:41:39;31.80;99.90
3023;DHT22;1521;53.584;9.938;2023-07-09T08:47:00;31.90;99.90
3023;DHT22;1521;53.584;9.938;2023-07-09T08:49:58;32.20;99.90
3023;DHT22;1521;53.584;9.938;2023-07-09T08:54:54;32.70;99.90
3023;DHT22;1521;53.584;9.938;2023-07-09T08:57:37;32.70;99.90
3023;DHT22;1521;53.584;9.938;2023-07-09T09:00:24;32.70;99.90
3023;DHT22;1521;53.584;9.938;2023-07-09T09:03:41;32.60;99.90
3023;DHT22;1521;53.584;9.938;2023-07-09T09:05:49;32.60;99.90
3023;DHT22;1521;53.584;9.938;2023-07-09T09:13:36;33.60;99.90
3023;DHT22;1521;53.584;9.938;2023-07-09T09:16:10;33.60;99.90
3023;DHT22;1521;53.584;9.938;2023-07-09T09:18:41;33.60;99.90
3023;DHT22;1521;53.584;9.938;2023-07-09T09:21:32;33.70;99.90
3023;DHT22;1521;53.584;9.938;2023-07-09T09:26:59;33.80;99.90
3023;DHT22;1521;53.584;9.938;2023-07-09T09:29:25;33.60;99.90
3023;DHT22;1521;53.584;9.938;2023-07-09T09:31:54;33.70;99.90
3023;DHT22;1521;53.584;9.938;2023-07-09T09:34:26;33.70;99.90
3023;DHT22;1521;53.584;9.938;2023-07-09T09:36:52;33.70;99.90
3023;DHT22;1521;53.584;9.938;2023-07-09T09:39:18;33.60;99.90
3023;DHT22;1521;53.584;9.938;2023-07-09T09:41:44;33.70;99.90
3023;DHT22;1521;53.584;9.938;2023-07-09T09:44:24;33.80;99.90
3023;DHT22;1521;53.584;9.938;2023-07-09T09:46:50;34.00;99.90
3023;DHT22;1521;53.584;9.938;2023-07-09T09:49:16;34.10;99.90
3023;DHT22;1521;53.584;9.938;2023-07-09T09:51:45;34.10;99.90
3023;DHT22;1521;53.584;9.938;2023-07-09T09:54:18;33.90;99.90
3023;DHT22;1521;53.584;9.938;2023-07-09T09:56:44;34.20;99.90
3023;DHT22;1521;53.584;9.938;2023-07-09T09:59:21;34.40;99.90
3023;DHT22;1521;53.584;9.938;2023-07-09T10:02:01;34.50;99.90
3023;DHT22;1521;53.584;9.938;2023-07-09T10:04:27;34.60;99.90
3023;DHT22;1521;53.584;9.938;2023-07-09T10:07:01;34.70;99.90
3023;DHT22;1521;53.584;9.938;2023-07-09T10:09:54;34.90;99.90
3023;DHT22;1521;53.584;9.938;2023-07-09T10:12:36;35.00;99.90
3023;DHT22;1521;53.584;9.938;2023-07-09T10:18:29;35.30;99.90
3023;DHT22;1521;53.584;9.938;2023-07-09T10:21:08;35.60;99.90
3023;DHT22;1521;53.584;9.938;2023-07-09T10:26:40;35.80;99.90
3023;DHT22;1521;53.584;9.938;2023-07-09T10:29:33;35.90;99.90
3023;DHT22;1521;53.584;9.938;2023-07-09T10:39:56;36.20;99.90
3023;DHT22;1521;53.584;9.938;2023-07-09T10:42:39;36.40;99.90
3023;DHT22;1521;53.584;9.938;2023-07-09T10:45:12;36.60;99.90
3023;DHT22;1521;53.584;9.938;2023-07-09T10:47:43;36.60;99.90
3023;DHT22;1521;53.584;9.938;2023-07-09T10:50:15;36.80;99.90
3023;DHT22;1521;53.584;9.938;2023-07-09T10:52:46;36.90;99.90
3023;DHT22;1521;53.584;9.938;2023-07-09T10:55:28;37.10;99.90
3023;DHT22;1521;53.584;9.938;2023-07-09T11:00:38;37.10;99.90
3023;DHT22;1521;53.584;9.938;2023-07-09T11:06:18;37.10;99.90
3023;DHT22;1521;53.584;9.938;2023-07-09T11:08:49;37.10;99.90
3023;DHT22;1521;53.584;9.938;2023-07-09T11:11:33;37.10;99.90
3023;DHT22;1521;53.584;9.938;2023-07-09T11:14:05;37.30;99.90
3023;DHT22;1521;53.584;9.938;2023-07-09T11:16:39;37.40;99.90
3023;DHT22;1521;53.584;9.938;2023-07-09T11:19:10;37.30;99.90
3023;DHT22;1521;53.584;9.938;2023-07-09T11:21:56;37.40;99.90
3023;DHT22;1521;53.584;9.938;2023-07-09T11:24:33;37.60;99.90
3023;DHT22;1521;53.584;9.938;2023-07-09T11:26:59;37.60;99.90
3023;DHT22;1521;53.584;9.938;2023-07-09T11:29:26;37.70;99.90
3023;DHT22;1521;53.584;9.938;2023-07-09T11:31:53;37.70;99.90
3023;DHT22;1521;53.584;9.938;2023-07-09T11:34:20;37.80;99.90
3023;DHT22;1521;53.584;9.938;2023-07-09T11:39:23;38.00;99.90
3023;DHT22;1521;53.584;9.938;2023-07-09T11:41:52;38.10;99.90
3023;DHT22;1521;53.584;9.938;2023-07-09T11:44:20;38.00;99.90
3023;DHT22;1521;53.584;9.938;2023-07-09T11:50:05;37.80;99.90
3023;DHT22;1521;53.584;9.938;2023-07-09T11:52:58;38.00;99.90
3023;DHT22;1521;53.584;9.938;2023-07-09T11:55:44;38.20;99.90
3023;DHT22;1521;53.584;9.938;2023-07-09T11:58:14;38.10;99.90
3023;DHT22;1521;53.584;9.938;2023-07-09T12:00:48;38.10;99.90
3023;DHT22;1521;53.584;9.938;2023-07-09T12:03:20;38.10;99.90
3023;DHT22;1521;53.584;9.938;2023-07-09T12:06:00;37.70;99.90
3023;DHT22;1521;53.584;9.938;2023-07-09T12:08:34;37.50;99.90
3023;DHT22;1521;53.584;9.938;2023-07-09T12:11:01;37.70;99.90
3023;DHT22;1521;53.584;9.938;2023-07-09T12:13:27;37.30;99.90
3023;DHT22;1521;53.584;9.938;2023-07-09T12:15:52;37.50;99.90
3023;DHT22;1521;53.584;9.938;2023-07-09T12:18:18;37.60;99.90
3023;DHT22;1521;53.584;9.938;2023-07-09T12:20:48;37.80;99.90
3023;DHT22;1521;53.584;9.938;2023-07-09T12:23:31;37.70;99.90
3023;DHT22;1521;53.584;9.938;2023-07-09T12:26:01;37.70;99.90
3023;DHT22;1521;53.584;9.938;2023-07-09T12:28:28;37.50;99.90
3023;DHT22;1521;53.584;9.938;2023-07-09T12:30:54;37.10;99.90
3023;DHT22;1521;53.584;9.938;2023-07-09T12:33:25;37.10;99.90
3023;DHT22;1521;53.584;9.938;2023-07-09T12:36:02;36.80;99.90
3023;DHT22;1521;53.584;9.938;2023-07-09T12:38:32;36.80;99.90
3023;DHT22;1521;53.584;9.938;2023-07-09T12:41:04;36.60;99.90
3023;DHT22;1521;53.584;9.938;2023-07-09T12:43:31;36.80;99.90
3023;DHT22;1521;53.584;9.938;2023-07-09T12:45:59;37.00;99.90
3023;DHT22;1521;53.584;9.938;2023-07-09T12:48:26;37.10;99.90
3023;DHT22;1521;53.584;9.938;2023-07-09T12:50:56;37.50;99.90
3023;DHT22;1521;53.584;9.938;2023-07-09T12:53:24;37.80;99.90
3023;DHT22;1521;53.584;9.938;2023-07-09T12:55:58;38.00;99.90
3023;DHT22;1521;53.584;9.938;2023-07-09T12:58:29;37.80;99.90
3023;DHT22;1521;53.584;9.938;2023-07-09T13:00:56;37.40;99.90
3023;DHT22;1521;53.584;9.938;2023-07-09T13:03:30;37.20;99.90
3023;DHT22;1521;53.584;9.938;2023-07-09T13:06:02;37.40;99.90
3023;DHT22;1521;53.584;9.938;2023-07-09T13:08:31;37.50;99.90
3023;DHT22;1521;53.584;9.938;2023-07-09T13:10:58;37.60;99.90
3023;DHT22;1521;53.584;9.938;2023-07-09T13:13:25;37.80;99.90
3023;DHT22;1521;53.584;9.938;2023-07-09T13:15:57;38.10;99.90
3023;DHT22;1521;53.584;9.938;2023-07-09T13:18:25;38.20;99.90
3023;DHT22;1521;53.584;9.938;2023-07-09T13:20:51;38.10;99.90
3023;DHT22;1521;53.584;9.938;2023-07-09T13:23:26;37.70;99.90
3023;DHT22;1521;53.584;9.938;2023-07-09T13:25:52;37.20;99.90
3023;DHT22;1521;53.584;9.938;2023-07-09T13:28:29;37.00;99.90
3023;DHT22;1521;53.584;9.938;2023-07-09T13:33:34;36.60;99.90
3023;DHT22;1521;53.584;9.938;2023-07-09T13:35:59;36.80;99.90
3023;DHT22;1521;53.584;9.938;2023-07-09T13:38:25;37.10;99.90
3023;DHT22;1521;53.584;9.938;2023-07-09T13:40:55;37.10;99.90
3023;DHT22;1521;53.584;9.938;2023-07-09T13:43:29;37.50;99.90
3023;DHT22;1521;53.584;9.938;2023-07-09T13:45:55;37.60;99.90
3023;DHT22;1521;53.584;9.938;2023-07-09T13:48:23;37.60;99.90
3023;DHT22;1521;53.584;9.938;2023-07-09T13:50:51;37.50;99.90
3023;DHT22;1521;53.584;9.938;2023-07-09T13:53:26;37.50;99.90
3023;DHT22;1521;53.584;9.938;2023-07-09T13:55:54;37.40;99.90
3023;DHT22;1521;53.584;9.938;2023-07-09T13:58:22;37.30;99.90
3023;DHT22;1521;53.584;9.938;2023-07-09T14:00:49;37.20;99.90
3023;DHT22;1521;53.584;9.938;2023-07-09T14:03:19;37.20;99.90
3023;DHT22;1521;53.584;9.938;2023-07-09T14:05:45;37.30;99.90
3023;DHT22;1521;53.584;9.938;2023-07-09T14:08:11;37.20;99.90
3023;DHT22;1521;53.584;9.938;2023-07-09T14:10:37;37.00;99.90
3023;DHT22;1521;53.584;9.938;2023-07-09T14:13:03;36.90;99.90
3023;DHT22;1521;53.584;9.938;2023-07-09T14:15:29;36.90;99.90
3023;DHT22;1521;53.584;9.938;2023-07-09T14:17:55;36.60;99.90
3023;DHT22;1521;53.584;9.938;2023-07-09T14:20:22;36.50;99.90
3023;DHT22;1521;53.584;9.938;2023-07-09T14:22:49;36.40;99.90
3023;DHT22;1521;53.584;9.938;2023-07-09T14:25:23;36.40;99.90
3023;DHT22;1521;53.584;9.938;2023-07-09T14:27:51;36.60;99.90
3023;DHT22;1521;53.584;9.938;2023-07-09T14:30:19;36.60;99.90
3023;DHT22;1521;53.584;9.938;2023-07-09T14:32:47;36.50;99.90
3023;DHT22;1521;53.584;9.938;2023-07-09T14:35:18;36.50;99.90
3023;DHT22;1521;53.584;9.938;2023-07-09T14:37:46;36.50;99.90
3023;DHT22;1521;53.584;9.938;2023-07-09T14:40:12;36.50;99.90
3023;DHT22;1521;53.584;9.938;2023-07-09T14:42:39;36.40;99.90
3023;DHT22;1521;53.584;9.938;2023-07-09T14:45:15;36.20;99.90
3023;DHT22;1521;53.584;9.938;2023-07-09T14:47:42;36.20;99.90
3023;DHT22;1521;53.584;9.938;2023-07-09T14:50:08;36.30;99.90
3023;DHT22;1521;53.584;9.938;2023-07-09T14:52:35;36.20;99.90
3023;DHT22;1521;53.584;9.938;2023-07-09T14:55:01;36.50;99.90
3023;DHT22;1521;53.584;9.938;2023-07-09T14:57:27;36.50;99.90
3023;DHT22;1521;53.584;9.938;2023-07-09T14:59:56;36.50;99.90
3023;DHT22;1521;53.584;9.938;2023-07-09T15:02:36;36.70;99.90
3023;DHT22;1521;53.584;9.938;2023-07-09T15:05:03;37.00;99.90
3023;DHT22;1521;53.584;9.938;2023-07-09T15:07:29;36.90;99.90
3023;DHT22;1521;53.584;9.938;2023-07-09T15:10:01;36.90;99.90
3023;DHT22;1521;53.584;9.938;2023-07-09T15:12:31;36.90;99.90
3023;DHT22;1521;53.584;9.938;2023-07-09T15:15:15;36.60;99.90
3023;DHT22;1521;53.584;9.938;2023-07-09T15:17:42;36.60;99.90
3023;DHT22;1521;53.584;9.938;2023-07-09T15:20:22;36.40;99.90
3023;DHT22;1521;53.584;9.938;2023-07-09T15:22:49;36.20;99.90
3023;DHT22;1521;53.584;9.938;2023-07-09T15:25:27;36.10;99.90
3023;DHT22;1521;53.584;9.938;2023-07-09T15:27:53;36.00;99.90
3023;DHT22;1521;53.584;9.938;2023-07-09T15:30:20;36.00;99.90
3023;DHT22;1521;53.584;9.938;2023-07-09T15:32:48;36.00;99.90
3023;DHT22;1521;53.584;9.938;2023-07-09T15:35:15;35.80;99.90
3023;DHT22;1521;53.584;9.938;2023-07-09T15:37:40;35.80;99.90
3023;DHT22;1521;53.584;9.938;2023-07-09T15:40:20;35.70;99.90
3023;DHT22;1521;53.584;9.938;2023-07-09T15:42:48;35.50;99.90
3023;DHT22;1521;53.584;9.938;2023-07-09T15:45:15;35.10;99.90
3023;DHT22;1521;53.584;9.938;2023-07-09T15:47:41;34.80;99.90
3023;DHT22;1521;53.584;9.938;2023-07-09T15:50:19;34.60;99.90
3023;DHT22;1521;53.584;9.938;2023-07-09T15:52:45;34.40;99.90
3023;DHT22;1521;53.584;9.938;2023-07-09T15:55:17;34.20;99.90
3023;DHT22;1521;53.584;9.938;2023-07-09T15:57:44;34.00;99.90
3023;DHT22;1521;53.584;9.938;2023-07-09T16:00:30;33.60;99.90
3023;DHT22;1521;53.584;9.938;2023-07-09T16:02:58;33.30;99.90
3023;DHT22;1521;53.584;9.938;2023-07-09T16:05:29;33.20;99.90
3023;DHT22;1521;53.584;9.938;2023-07-09T16:07:58;33.00;99.90
3023;DHT22;1521;53.584;9.938;2023-07-09T16:10:26;32.90;99.90
3023;DHT22;1521;53.584;9.938;2023-07-09T16:12:53;32.90;99.90
3023;DHT22;1521;53.584;9.938;2023-07-09T16:15:21;32.80;99.90
3023;DHT22;1521;53.584;9.938;2023-07-09T16:17:48;32.60;99.90
3023;DHT22;1521;53.584;9.938;2023-07-09T16:20:21;32.50;99.90
3023;DHT22;1521;53.584;9.938;2023-07-09T16:22:49;32.50;99.90
3023;DHT22;1521;53.584;9.938;2023-07-09T16:25:19;32.40;99.90
3023;DHT22;1521;53.584;9.938;2023-07-09T16:27:46;32.20;99.90
3023;DHT22;1521;53.584;9.938;2023-07-09T16:30:18;32.10;99.90
3023;DHT22;1521;53.584;9.938;2023-07-09T16:32:44;32.10;99.90
3023;DHT22;1521;53.584;9.938;2023-07-09T16:35:15;32.10;99.90
3023;DHT22;1521;53.584;9.938;2023-07-09T16:37:42;32.00;99.90
3023;DHT22;1521;53.584;9.938;2023-07-09T16:40:18;32.00;99.90
3023;DHT22;1521;53.584;9.938;2023-07-09T16:42:44;32.00;99.90
3023;DHT22;1521;53.584;9.938;2023-07-09T16:45:13;31.90;99.90
3023;DHT22;1521;53.584;9.938;2023-07-09T16:47:40;31.80;99.90
3023;DHT22;1521;53.584;9.938;2023-07-09T16:50:06;31.70;99.90
3023;DHT22;1521;53.584;9.938;2023-07-09T16:52:31;31.70;99.90
3023;DHT22;1521;53.584;9.938;2023-07-09T16:54:57;31.60;99.90
3023;DHT22;1521;53.584;9.938;2023-07-09T16:57:28;31.60;99.90
3023;DHT22;1521;53.584;9.938;2023-07-09T17:02:42;31.30;99.90
3023;DHT22;1521;53.584;9.938;2023-07-09T17:05:08;31.20;99.90
3023;DHT22;1521;53.584;9.938;2023-07-09T17:07:34;31.20;99.90
3023;DHT22;1521;53.584;9.938;2023-07-09T17:09:59;31.10;99.90
3023;DHT22;1521;53.584;9.938;2023-07-09T17:12:26;31.00;99.90